Time;durP1;ratioP1;P1;durP2;ratioP2;P2;SDS_P1;SDS_P2;PMS_P1;PMS_P2;Temp;Humidity;BMP_temperature;BMP_pressure;BME280_temperature;BME280_humidity;BME280_pressure;Samples;Min_cycle;Max_cycle;Signal;HPM_P1;HPM_P2
2023/04/10 00:00:41;;;;;;;5.32;0.40;;;;;;;;;;4975537;28;20035;-64
2023/04/10 00:03:08;;;;;;;0.63;0.30;;;;;;;;;;4986761;28;20136;-64
2023/04/10 00:05:35;;;;;;;1.30;0.40;;;;;;;;;;4975179;28;20038;-67
2023/04/10 00:08:02;;;;;;;3.17;0.47;;;;;;;;;;4969310;28;20045;-65
2023/04/10 00:10:30;;;;;;;0.95;0.30;;;;;;;;;;4976141;28;20058;-64
2023/04/10 00:12:59;;;;;;;0.55;0.30;;;;;;;;;;4986157;28;20057;-71
2023/04/10 00:15:27;;;;;;;5.00;0.43;;;;;;;;;;4975374;28;20038;-62
2023/04/10 00:17:55;;;;;;;1.92;0.38;;;;;;;;;;4992745;28;20042;-65
2023/04/10 00:20:22;;;;;;;2.28;0.40;;;;;;;;;;4988532;28;20035;-64
2023/04/10 00:22:49;;;;;;;1.75;0.32;;;;;;;;;;4971637;28;20072;-66
2023/04/10 00:25:16;;;;;;;1.10;0.40;;;;;;;;;;4978152;28;20042;-64
2023/04/10 00:27:42;;;;;;;2.03;0.40;;;;;;;;;;4972425;28;20050;-64
2023/04/10 00:30:09;;;;;;;2.85;0.60;;;;;;;;;;4989818;28;20098;-67
2023/04/10 00:32:36;;;;;;;0.80;0.30;;;;;;;;;;4976829;28;20133;-65
2023/04/10 00:35:02;;;;;;;2.03;0.50;;;;;;;;;;4980581;28;20068;-65
2023/04/10 00:37:29;;;;;;;2.63;0.50;;;;;;;;;;4981360;28;20075;-65
2023/04/10 00:39:56;;;;;;;0.77;0.30;;;;;;;;;;4981570;28;20065;-64
2023/04/10 00:42:22;;;;;;;0.80;0.30;;;;;;;;;;4979488;28;20072;-65
2023/04/10 00:44:49;;;;;;;3.63;0.40;;;;;;;;;;4980719;28;20050;-64
2023/04/10 00:47:16;;;;;;;1.17;0.40;;;;;;;;;;4977747;28;20451;-64
2023/04/10 00:49:43;;;;;;;1.05;0.35;;;;;;;;;;4978001;28;20113;-64
2023/04/10 00:52:10;;;;;;;0.85;0.30;;;;;;;;;;4977701;28;20161;-64
2023/04/10 00:54:36;;;;;;;3.15;0.38;;;;;;;;;;4977084;28;20034;-65
2023/04/10 00:57:04;;;;;;;3.63;0.40;;;;;;;;;;4978789;28;20197;-64
2023/04/10 00:59:30;;;;;;;3.60;0.50;;;;;;;;;;4989524;28;20057;-63
2023/04/10 01:01:58;;;;;;;5.07;0.45;;;;;;;;;;4981590;28;20057;-63
2023/04/10 01:04:29;;;;;;;1.05;0.30;;;;;;;;;;4975746;28;20062;-63
2023/04/10 01:07:03;;;;;;;1.42;0.40;;;;;;;;;;4980781;28;20403;-63
2023/04/10 01:09:48;;;;;;;3.40;0.75;;;;;;;;;;4979165;28;20065;-63
2023/04/10 01:12:21;;;;;;;2.85;0.70;;;;;;;;;;4981033;28;20065;-64
2023/04/10 01:14:47;;;;;;;;;;;;;;;;;;4991089;28;20065;-65
2023/04/10 01:17:35;;;;;;;3.25;0.52;;;;;;;;;;4978454;28;19918;-63
2023/04/10 01:20:04;;;;;;;1.55;0.47;;;;;;;;;;4979163;28;20045;-65
2023/04/10 01:22:35;;;;;;;2.22;0.40;;;;;;;;;;4978166;28;20550;-62
2023/04/10 01:25:11;;;;;;;2.17;0.40;;;;;;;;;;4977358;28;20491;-59
2023/04/10 01:27:44;;;;;;;2.08;0.50;;;;;;;;;;4978882;28;20440;-63
2023/04/10 01:30:14;;;;;;;2.03;0.40;;;;;;;;;;4976133;28;20651;-63
2023/04/10 01:32:41;;;;;;;5.78;0.75;;;;;;;;;;4981014;28;20133;-66
2023/04/10 01:35:08;;;;;;;5.72;0.60;;;;;;;;;;4981733;28;20055;-63
2023/04/10 01:37:37;;;;;;;2.83;0.77;;;;;;;;;;4974920;28;20046;-65
2023/04/10 01:40:06;;;;;;;3.95;0.50;;;;;;;;;;4982880;28;20038;-63
2023/04/10 01:42:34;;;;;;;3.15;0.50;;;;;;;;;;4983179;28;20508;-65
2023/04/10 01:45:01;;;;;;;1.80;0.63;;;;;;;;;;4982881;28;20046;-64
2023/04/10 01:47:29;;;;;;;6.78;0.77;;;;;;;;;;4982135;28;20053;-63
2023/04/10 01:49:57;;;;;;;3.15;0.80;;;;;;;;;;4981036;28;20053;-63
2023/04/10 01:52:24;;;;;;;3.13;0.77;;;;;;;;;;4978821;28;20124;-63
2023/04/10 01:54:51;;;;;;;3.55;0.70;;;;;;;;;;4978550;28;20066;-64
2023/04/10 01:57:19;;;;;;;9.45;1.05;;;;;;;;;;4977821;28;20118;-62
2023/04/10 01:59:46;;;;;;;3.92;0.73;;;;;;;;;;4979865;28;20450;-63
2023/04/10 02:02:13;;;;;;;5.30;0.90;;;;;;;;;;4978753;28;20102;-61
2023/04/10 02:04:40;;;;;;;4.70;1.00;;;;;;;;;;4977695;28;20122;-61
2023/04/10 02:07:09;;;;;;;4.55;1.10;;;;;;;;;;4977473;28;20042;-63
2023/04/10 02:09:39;;;;;;;8.40;1.30;;;;;;;;;;4977135;28;20113;-63
2023/04/10 02:12:06;;;;;;;7.18;1.30;;;;;;;;;;4978179;28;20046;-63
2023/04/10 02:14:36;;;;;;;4.50;1.08;;;;;;;;;;4978342;28;20122;-61
2023/04/10 02:17:03;;;;;;;8.18;1.20;;;;;;;;;;4978003;28;20046;-61
2023/04/10 02:19:31;;;;;;;7.05;1.42;;;;;;;;;;4976678;28;20049;-62
2023/04/10 02:21:58;;;;;;;4.07;1.25;;;;;;;;;;4977810;28;20073;-62
2023/04/10 02:24:25;;;;;;;2.78;0.70;;;;;;;;;;4977167;28;20495;-62
2023/04/10 02:26:52;;;;;;;14.88;1.55;;;;;;;;;;4977739;28;20104;-62
2023/04/10 02:29:19;;;;;;;4.18;0.95;;;;;;;;;;4976783;28;20057;-67
2023/04/10 02:31:46;;;;;;;4.03;1.00;;;;;;;;;;4978703;28;20035;-62
2023/04/10 02:34:14;;;;;;;6.50;1.20;;;;;;;;;;4977828;28;20053;-62
2023/04/10 02:36:41;;;;;;;6.43;0.90;;;;;;;;;;4976973;28;20066;-62
2023/04/10 02:39:07;;;;;;;3.85;1.10;;;;;;;;;;4977797;28;20042;-63
2023/04/10 02:41:34;;;;;;;4.15;1.00;;;;;;;;;;4977275;28;20038;-64
2023/04/10 02:44:01;;;;;;;10.35;2.50;;;;;;;;;;4979131;28;20045;-64
2023/04/10 02:46:27;;;;;;;8.75;1.77;;;;;;;;;;4978127;28;20046;-62
2023/04/10 02:48:55;;;;;;;5.40;1.27;;;;;;;;;;4977699;28;20065;-62
2023/04/10 02:51:21;;;;;;;10.77;1.35;;;;;;;;;;4977044;28;20084;-62
2023/04/10 02:53:48;;;;;;;4.45;1.00;;;;;;;;;;4976998;28;20039;-62
2023/04/10 02:56:15;;;;;;;3.67;0.90;;;;;;;;;;4976602;28;20050;-62
2023/04/10 02:58:44;;;;;;;9.18;0.90;;;;;;;;;;4975774;28;20045;-62
2023/04/10 03:01:12;;;;;;;3.05;1.00;;;;;;;;;;4976923;28;20069;-62
2023/04/10 03:03:39;;;;;;;3.20;0.85;;;;;;;;;;4992516;28;20629;-62
2023/04/10 03:06:06;;;;;;;3.85;1.00;;;;;;;;;;4975572;28;20042;-62
2023/04/10 03:08:32;;;;;;;8.82;1.30;;;;;;;;;;4978024;28;20061;-60
2023/04/10 03:10:59;;;;;;;7.57;1.20;;;;;;;;;;4978150;28;20731;-63
2023/04/10 03:13:26;;;;;;;8.05;1.38;;;;;;;;;;4976353;28;20042;-62
2023/04/10 03:15:52;;;;;;;8.00;1.40;;;;;;;;;;4977165;28;20053;-62
2023/04/10 03:18:19;;;;;;;3.83;1.00;;;;;;;;;;4978026;28;20662;-60
2023/04/10 03:20:47;;;;;;;6.90;1.40;;;;;;;;;;4974473;28;20038;-63
2023/04/10 03:23:14;;;;;;;4.78;1.10;;;;;;;;;;4978135;28;20054;-66
2023/04/10 03:25:42;;;;;;;12.63;1.67;;;;;;;;;;4975696;28;21506;-62
2023/04/10 03:28:08;;;;;;;7.65;1.17;;;;;;;;;;4977826;28;20582;-65
2023/04/10 03:30:35;;;;;;;5.03;1.40;;;;;;;;;;4978439;28;20049;-62
2023/04/10 03:33:02;;;;;;;17.92;2.15;;;;;;;;;;4975845;28;20050;-63
2023/04/10 03:35:29;;;;;;;13.13;1.70;;;;;;;;;;4974874;28;20050;-62
2023/04/10 03:37:55;;;;;;;7.00;1.10;;;;;;;;;;4976561;28;20457;-64
2023/04/10 03:40:22;;;;;;;5.00;1.15;;;;;;;;;;4975893;28;20383;-63
2023/04/10 03:42:49;;;;;;;5.25;1.35;;;;;;;;;;4975941;28;20046;-63
2023/04/10 03:45:15;;;;;;;3.45;1.02;;;;;;;;;;4975294;28;20046;-63
2023/04/10 03:47:43;;;;;;;3.60;1.20;;;;;;;;;;4986717;28;20066;-63
2023/04/10 03:50:10;;;;;;;7.20;1.33;;;;;;;;;;4975880;28;20062;-63
2023/04/10 03:52:36;;;;;;;8.60;1.10;;;;;;;;;;4989541;28;20057;-63
2023/04/10 03:55:03;;;;;;;8.35;1.05;;;;;;;;;;4975248;28;20034;-64
2023/04/10 03:57:29;;;;;;;6.75;1.08;;;;;;;;;;4959646;28;20041;-64
2023/04/10 03:59:56;;;;;;;9.60;0.80;;;;;;;;;;4975882;28;20050;-64
2023/04/10 04:02:23;;;;;;;2.88;0.60;;;;;;;;;;4977059;28;20438;-64
2023/04/10 04:04:49;;;;;;;16.05;1.67;;;;;;;;;;4982794;28;20126;-63
2023/04/10 04:07:16;;;;;;;24.65;2.30;;;;;;;;;;4983183;28;20048;-63
2023/04/10 04:09:42;;;;;;;47.13;3.38;;;;;;;;;;4982691;28;20073;-64
2023/04/10 04:12:09;;;;;;;10.50;1.30;;;;;;;;;;4983708;28;20786;-63
2023/04/10 04:14:36;;;;;;;4.25;0.80;;;;;;;;;;4982448;28;20080;-64
2023/04/10 04:17:02;;;;;;;3.25;0.80;;;;;;;;;;4983457;28;20107;-64
2023/04/10 04:19:29;;;;;;;10.38;0.82;;;;;;;;;;4982247;28;20096;-63
2023/04/10 04:21:56;;;;;;;6.75;0.70;;;;;;;;;;4983764;28;20037;-63
2023/04/10 04:24:23;;;;;;;8.85;0.80;;;;;;;;;;4982327;28;20551;-64
2023/04/10 04:26:49;;;;;;;6.40;0.82;;;;;;;;;;4976257;28;21863;-62
2023/04/10 04:29:16;;;;;;;6.45;0.68;;;;;;;;;;4990986;28;20180;-65
2023/04/10 04:31:43;;;;;;;2.45;0.30;;;;;;;;;;4982821;28;20149;-64
2023/04/10 04:34:10;;;;;;;3.28;0.40;;;;;;;;;;4997344;28;20502;-63
2023/04/10 04:36:36;;;;;;;1.38;0.40;;;;;;;;;;4979371;28;20083;-63
2023/04/10 04:39:03;;;;;;;4.78;0.50;;;;;;;;;;4981657;28;20037;-64
2023/04/10 04:41:31;;;;;;;2.38;0.60;;;;;;;;;;4974660;28;20040;-62
2023/04/10 04:44:05;;;;;;;0.63;0.30;;;;;;;;;;4981359;28;20494;-63
2023/04/10 04:46:32;;;;;;;1.70;0.50;;;;;;;;;;4981139;28;20551;-62
2023/04/10 04:48:58;;;;;;;2.47;0.60;;;;;;;;;;4981877;28;20061;-63
2023/04/10 04:51:25;;;;;;;0.85;0.38;;;;;;;;;;4991161;28;20030;-62
2023/04/10 04:53:52;;;;;;;1.83;0.50;;;;;;;;;;4981356;28;20065;-63
2023/04/10 04:56:19;;;;;;;0.82;0.40;;;;;;;;;;4981840;28;20118;-63
2023/04/10 04:58:45;;;;;;;0.95;0.38;;;;;;;;;;4982202;28;20042;-62
2023/04/10 05:01:12;;;;;;;2.78;0.50;;;;;;;;;;4983101;28;20050;-62
2023/04/10 05:03:39;;;;;;;1.45;0.50;;;;;;;;;;4989982;28;20470;-64
2023/04/10 05:06:05;;;;;;;2.65;0.57;;;;;;;;;;4982658;28;20339;-62
2023/04/10 05:08:32;;;;;;;2.30;0.70;;;;;;;;;;4982760;28;20129;-62
2023/04/10 05:10:59;;;;;;;3.00;0.77;;;;;;;;;;4982104;28;20038;-63
2023/04/10 05:13:25;;;;;;;4.55;0.65;;;;;;;;;;4980907;28;20382;-62
2023/04/10 05:15:52;;;;;;;2.33;0.60;;;;;;;;;;4978909;28;20039;-62
2023/04/10 05:18:22;;;;;;;1.88;0.60;;;;;;;;;;4972830;28;20062;-66
2023/04/10 05:20:49;;;;;;;2.17;0.77;;;;;;;;;;4979481;28;20050;-63
2023/04/10 05:23:16;;;;;;;3.78;0.57;;;;;;;;;;4979928;28;20088;-62
2023/04/10 05:25:43;;;;;;;2.95;0.70;;;;;;;;;;4978108;28;20113;-63
2023/04/10 05:28:09;;;;;;;3.83;0.77;;;;;;;;;;4979772;28;20038;-62
2023/04/10 05:30:36;;;;;;;2.75;0.82;;;;;;;;;;4978830;28;20062;-62
2023/04/10 05:33:03;;;;;;;3.97;0.75;;;;;;;;;;4978202;28;20038;-63
2023/04/10 05:35:30;;;;;;;1.85;0.40;;;;;;;;;;4976924;28;20108;-63
2023/04/10 05:37:57;;;;;;;0.75;0.30;;;;;;;;;;4978483;28;20062;-62
2023/04/10 05:40:25;;;;;;;1.85;0.60;;;;;;;;;;4978542;28;20049;-63
2023/04/10 05:43:10;;;;;;;2.00;0.68;;;;;;;;;;4991272;28;20038;-62
2023/04/10 05:45:37;;;;;;;5.60;0.70;;;;;;;;;;4988374;28;20121;-63
2023/04/10 05:48:04;;;;;;;10.13;1.10;;;;;;;;;;4989429;28;20112;-64
2023/04/10 05:50:30;;;;;;;2.70;0.60;;;;;;;;;;4988532;28;20042;-63
2023/04/10 05:52:57;;;;;;;4.80;0.63;;;;;;;;;;4989332;28;20034;-64
2023/04/10 05:55:24;;;;;;;3.75;0.73;;;;;;;;;;4987887;28;20413;-65
2023/04/10 05:57:51;;;;;;;3.53;0.50;;;;;;;;;;4988999;28;20038;-63
2023/04/10 06:00:18;;;;;;;2.92;0.30;;;;;;;;;;4988645;28;20096;-64
2023/04/10 06:02:45;;;;;;;0.70;0.30;;;;;;;;;;4989824;28;20077;-65
2023/04/10 06:05:11;;;;;;;1.30;0.40;;;;;;;;;;4987231;28;20034;-63
2023/04/10 06:07:38;;;;;;;4.47;0.63;;;;;;;;;;4988407;28;20038;-64
2023/04/10 06:10:05;;;;;;;1.10;0.30;;;;;;;;;;4987636;28;20562;-63
2023/04/10 06:12:31;;;;;;;0.60;0.30;;;;;;;;;;4985687;28;20506;-63
2023/04/10 06:14:58;;;;;;;0.20;0.20;;;;;;;;;;4987460;28;20052;-66
2023/04/10 06:17:25;;;;;;;0.73;0.30;;;;;;;;;;4974111;28;20129;-64
2023/04/10 06:19:51;;;;;;;2.38;0.60;;;;;;;;;;4975193;28;20046;-63
2023/04/10 06:22:18;;;;;;;8.15;1.00;;;;;;;;;;4992203;28;20034;-64
2023/04/10 06:24:45;;;;;;;4.68;1.17;;;;;;;;;;4975800;28;20039;-64
2023/04/10 06:27:12;;;;;;;6.03;1.00;;;;;;;;;;4976620;28;20161;-63
2023/04/10 06:29:38;;;;;;;2.90;0.77;;;;;;;;;;4985997;28;20061;-64
2023/04/10 06:32:05;;;;;;;2.13;0.50;;;;;;;;;;4977419;28;20963;-62
2023/04/10 06:34:32;;;;;;;4.55;0.52;;;;;;;;;;4973847;28;20046;-63
2023/04/10 06:36:58;;;;;;;1.42;0.40;;;;;;;;;;4971468;28;20038;-63
2023/04/10 06:39:25;;;;;;;3.28;0.50;;;;;;;;;;4972003;28;20088;-64
2023/04/10 06:41:51;;;;;;;1.05;0.50;;;;;;;;;;4978358;28;20035;-64
2023/04/10 06:44:18;;;;;;;1.98;0.50;;;;;;;;;;4976967;28;20051;-68
2023/04/10 06:46:45;;;;;;;5.90;0.60;;;;;;;;;;4976095;28;20046;-64
2023/04/10 06:49:11;;;;;;;2.53;0.40;;;;;;;;;;4967820;28;20046;-63
2023/04/10 06:51:38;;;;;;;1.83;0.30;;;;;;;;;;4976772;28;20046;-65
2023/04/10 06:54:05;;;;;;;1.33;0.40;;;;;;;;;;4976412;28;20153;-64
2023/04/10 06:56:31;;;;;;;2.85;0.50;;;;;;;;;;4975145;28;20041;-64
2023/04/10 06:58:58;;;;;;;2.08;0.40;;;;;;;;;;4976650;28;20030;-64
2023/04/10 07:01:25;;;;;;;2.63;0.50;;;;;;;;;;4975414;28;20044;-65
2023/04/10 07:03:51;;;;;;;1.63;0.40;;;;;;;;;;4991617;28;20046;-63
2023/04/10 07:06:18;;;;;;;0.25;0.20;;;;;;;;;;4976599;28;20038;-63
2023/04/10 07:08:45;;;;;;;0.88;0.30;;;;;;;;;;4974394;28;20054;-63
2023/04/10 07:11:11;;;;;;;1.00;0.38;;;;;;;;;;4991202;28;20038;-63
2023/04/10 07:13:38;;;;;;;1.50;0.30;;;;;;;;;;4975337;28;20042;-64
2023/04/10 07:16:07;;;;;;;1.25;0.40;;;;;;;;;;4974666;28;20038;-64
2023/04/10 07:18:37;;;;;;;0.70;0.35;;;;;;;;;;4976408;28;20042;-64
2023/04/10 07:21:12;;;;;;;1.42;0.28;;;;;;;;;;4972000;28;21683;-63
2023/04/10 07:23:38;;;;;;;0.65;0.30;;;;;;;;;;4975521;28;20049;-63
2023/04/10 07:26:05;;;;;;;1.63;0.38;;;;;;;;;;4976306;28;20046;-64
2023/04/10 07:28:33;;;;;;;2.90;0.45;;;;;;;;;;4975621;28;20049;-64
2023/04/10 07:31:00;;;;;;;0.60;0.30;;;;;;;;;;4976545;28;20070;-64
2023/04/10 07:33:27;;;;;;;3.92;0.40;;;;;;;;;;4968814;28;20046;-64
2023/04/10 07:35:55;;;;;;;0.45;0.30;;;;;;;;;;4990282;28;20034;-64
2023/04/10 07:38:23;;;;;;;0.20;0.20;;;;;;;;;;4975148;28;20042;-65
2023/04/10 07:40:49;;;;;;;1.77;0.40;;;;;;;;;;4976644;28;20085;-65
2023/04/10 07:43:16;;;;;;;1.65;0.50;;;;;;;;;;4975297;28;20069;-64
2023/04/10 07:45:42;;;;;;;1.38;0.35;;;;;;;;;;4974661;28;20052;-64
2023/04/10 07:48:09;;;;;;;1.60;0.40;;;;;;;;;;4975823;28;20103;-63
2023/04/10 07:50:36;;;;;;;2.85;0.40;;;;;;;;;;4976119;28;20038;-64
2023/04/10 07:53:06;;;;;;;0.43;0.30;;;;;;;;;;4975308;28;20757;-64
2023/04/10 07:55:42;;;;;;;1.55;0.40;;;;;;;;;;4988170;28;20073;-65
2023/04/10 07:58:09;;;;;;;0.47;0.35;;;;;;;;;;4989313;28;20046;-67
2023/04/10 08:00:36;;;;;;;0.30;0.30;;;;;;;;;;4974838;28;20041;-65
2023/04/10 08:03:04;;;;;;;2.47;0.40;;;;;;;;;;4975354;28;20069;-64
2023/04/10 08:05:31;;;;;;;1.33;0.30;;;;;;;;;;4973680;28;20042;-65
2023/04/10 08:07:57;;;;;;;0.93;0.40;;;;;;;;;;4985604;28;20038;-65
2023/04/10 08:10:24;;;;;;;1.15;0.40;;;;;;;;;;4974965;28;20038;-65
2023/04/10 08:12:50;;;;;;;0.93;0.38;;;;;;;;;;4975270;28;20049;-64
2023/04/10 08:15:17;;;;;;;1.83;0.40;;;;;;;;;;4974788;28;20054;-64
2023/04/10 08:17:44;;;;;;;5.22;0.52;;;;;;;;;;4974912;28;20074;-64
2023/04/10 08:20:11;;;;;;;2.97;0.45;;;;;;;;;;4976264;28;20074;-64
2023/04/10 08:22:38;;;;;;;6.53;0.60;;;;;;;;;;4974437;28;20039;-65
2023/04/10 08:25:05;;;;;;;0.88;0.40;;;;;;;;;;4975277;28;20124;-65
2023/04/10 08:27:31;;;;;;;2.15;0.40;;;;;;;;;;4974288;28;20034;-65
2023/04/10 08:29:58;;;;;;;2.28;0.43;;;;;;;;;;4975444;28;20073;-64
2023/04/10 08:32:26;;;;;;;3.30;0.55;;;;;;;;;;4975406;28;20058;-65
2023/04/10 08:34:53;;;;;;;0.93;0.40;;;;;;;;;;4975515;28;20431;-64
2023/04/10 08:37:20;;;;;;;1.55;0.43;;;;;;;;;;4975409;28;20104;-65
2023/04/10 08:39:46;;;;;;;1.85;0.60;;;;;;;;;;4974339;28;20394;-65
2023/04/10 08:42:13;;;;;;;1.40;0.40;;;;;;;;;;4976071;28;20149;-65
2023/04/10 08:44:40;;;;;;;1.13;0.65;;;;;;;;;;4973338;28;20054;-64
2023/04/10 08:47:08;;;;;;;1.88;0.40;;;;;;;;;;4975664;28;20049;-65
2023/04/10 08:49:38;;;;;;;0.80;0.35;;;;;;;;;;4976852;28;20054;-65
2023/04/10 08:52:07;;;;;;;0.43;0.30;;;;;;;;;;4978644;28;20509;-64
2023/04/10 08:54:37;;;;;;;1.08;0.30;;;;;;;;;;4975834;28;20782;-64
2023/04/10 08:57:06;;;;;;;1.23;0.35;;;;;;;;;;4982974;28;20061;-65
2023/04/10 08:59:33;;;;;;;0.85;0.30;;;;;;;;;;4979839;28;20224;-64
2023/04/10 09:02:00;;;;;;;5.63;0.50;;;;;;;;;;4973364;28;20046;-65
2023/04/10 09:04:28;;;;;;;0.40;0.30;;;;;;;;;;4978085;28;20042;-66
2023/04/10 09:06:54;;;;;;;1.35;0.30;;;;;;;;;;4979624;28;20128;-65
2023/04/10 09:09:21;;;;;;;0.30;0.30;;;;;;;;;;4979899;28;20057;-64
2023/04/10 09:11:54;;;;;;;0.80;0.30;;;;;;;;;;4980432;28;20038;-64
2023/04/10 09:14:21;;;;;;;2.70;0.38;;;;;;;;;;4978689;28;20046;-64
2023/04/10 09:16:48;;;;;;;2.42;0.40;;;;;;;;;;4979862;28;20070;-65
2023/04/10 09:19:29;;;;;;;1.33;0.30;;;;;;;;;;4979508;28;20031;-64
2023/04/10 09:21:56;;;;;;;0.25;0.20;;;;;;;;;;4977784;28;20085;-65
2023/04/10 09:24:23;;;;;;;0.63;0.28;;;;;;;;;;4978126;28;20528;-64
2023/04/10 09:26:50;;;;;;;2.95;0.45;;;;;;;;;;4979436;28;20126;-64
2023/04/10 09:29:17;;;;;;;0.90;0.30;;;;;;;;;;4994429;28;20519;-64
2023/04/10 09:31:43;;;;;;;0.20;0.20;;;;;;;;;;4980418;28;20034;-63
2023/04/10 09:34:13;;;;;;;0.32;0.30;;;;;;;;;;4979603;28;20050;-64
2023/04/10 09:36:43;;;;;;;0.20;0.20;;;;;;;;;;4978934;28;20193;-63
2023/04/10 09:39:12;;;;;;;0.63;0.30;;;;;;;;;;4979378;28;20148;-64
2023/04/10 09:41:49;;;;;;;1.60;0.40;;;;;;;;;;4971155;28;20045;-64
2023/04/10 09:44:18;;;;;;;0.75;0.30;;;;;;;;;;4974337;28;20913;-64
2023/04/10 09:46:45;;;;;;;1.30;0.45;;;;;;;;;;4978947;28;20039;-62
2023/04/10 09:49:12;;;;;;;0.45;0.30;;;;;;;;;;4979389;28;20058;-62
2023/04/10 09:51:39;;;;;;;0.45;0.30;;;;;;;;;;4977762;28;20058;-63
2023/04/10 09:54:05;;;;;;;0.73;0.30;;;;;;;;;;4977517;28;20157;-62
2023/04/10 09:56:36;;;;;;;1.13;0.30;;;;;;;;;;4978294;28;20046;-62
2023/04/10 09:59:03;;;;;;;0.28;0.20;;;;;;;;;;4979359;28;20042;-63
2023/04/10 10:01:33;;;;;;;0.30;0.30;;;;;;;;;;4977700;28;20193;-63
2023/04/10 10:04:03;;;;;;;0.50;0.30;;;;;;;;;;4977536;28;20030;-65
2023/04/10 10:06:31;;;;;;;0.77;0.30;;;;;;;;;;4977939;28;20503;-65
2023/04/10 10:09:01;;;;;;;0.20;0.20;;;;;;;;;;4977455;28;20054;-65
2023/04/10 10:11:29;;;;;;;0.20;0.20;;;;;;;;;;4977761;28;20038;-65
2023/04/10 10:13:57;;;;;;;0.43;0.28;;;;;;;;;;4989219;28;20050;-64
2023/04/10 10:16:29;;;;;;;0.38;0.30;;;;;;;;;;4976598;28;20912;-64
2023/04/10 10:19:04;;;;;;;1.02;0.40;;;;;;;;;;4976486;28;20057;-65
2023/04/10 10:21:32;;;;;;;1.65;0.30;;;;;;;;;;4990692;28;20046;-65
2023/04/10 10:24:00;;;;;;;0.57;0.30;;;;;;;;;;4976220;28;20030;-66
2023/04/10 10:26:28;;;;;;;10.27;0.82;;;;;;;;;;4976986;28;20074;-65
2023/04/10 10:28:56;;;;;;;4.53;0.65;;;;;;;;;;4978743;28;20050;-64
2023/04/10 10:31:23;;;;;;;0.30;0.30;;;;;;;;;;4992555;28;20073;-64
2023/04/10 10:33:52;;;;;;;4.38;0.50;;;;;;;;;;4977819;28;20038;-64
2023/04/10 10:36:19;;;;;;;1.88;0.50;;;;;;;;;;4989269;28;20050;-64
2023/04/10 10:39:01;;;;;;;0.63;0.35;;;;;;;;;;4978380;28;20038;-65
2023/04/10 10:41:44;;;;;;;2.90;0.47;;;;;;;;;;4977608;28;20515;-64
2023/04/10 10:44:16;;;;;;;0.85;0.40;;;;;;;;;;4978537;28;20058;-64
2023/04/10 10:46:59;;;;;;;0.70;0.40;;;;;;;;;;4977890;28;20775;-64
2023/04/10 10:49:44;;;;;;;1.50;0.50;;;;;;;;;;4975399;28;20074;-64
2023/04/10 10:52:10;;;;;;;1.25;0.40;;;;;;;;;;4979517;28;20042;-64
2023/04/10 10:54:37;;;;;;;2.72;0.40;;;;;;;;;;4976610;28;20034;-68
2023/04/10 10:57:08;;;;;;;3.17;0.40;;;;;;;;;;4977337;28;21377;-64
2023/04/10 10:59:43;;;;;;;1.77;0.50;;;;;;;;;;4977080;28;20505;-64
2023/04/10 11:02:17;;;;;;;3.85;0.68;;;;;;;;;;4978479;28;20046;-64
2023/04/10 11:04:48;;;;;;;1.50;0.50;;;;;;;;;;4975929;28;20038;-64
2023/04/10 11:07:15;;;;;;;3.20;0.60;;;;;;;;;;4976419;28;20052;-64
2023/04/10 11:09:50;;;;;;;0.82;0.30;;;;;;;;;;4972712;28;20058;-63
2023/04/10 11:12:19;;;;;;;2.38;0.50;;;;;;;;;;4976479;28;20042;-63
2023/04/10 11:14:56;;;;;;;2.92;0.40;;;;;;;;;;4976829;28;20049;-63
2023/04/10 11:17:49;;;;;;;5.03;0.60;;;;;;;;;;4978210;28;20065;-64
2023/04/10 11:20:16;;;;;;;1.75;0.50;;;;;;;;;;4977820;28;20479;-64
2023/04/10 11:23:01;;;;;;;9.20;0.70;;;;;;;;;;4971396;28;20053;-62
2023/04/10 11:25:47;;;;;;;6.32;0.80;;;;;;;;;;4976352;28;20077;-65
2023/04/10 11:28:32;;;;;;;2.67;0.70;;;;;;;;;;4977655;28;20134;-64
2023/04/10 11:31:20;;;;;;;2.50;0.65;;;;;;;;;;4976499;28;20038;-64
2023/04/10 11:34:00;;;;;;;3.03;0.65;;;;;;;;;;4976144;28;20491;-66
2023/04/10 11:36:49;;;;;;;4.93;0.80;;;;;;;;;;4966958;28;20099;-63
2023/04/10 11:39:17;;;;;;;16.33;1.67;;;;;;;;;;4966956;28;20054;-66
2023/04/10 11:41:48;;;;;;;14.02;1.25;;;;;;;;;;4967791;28;20094;-66
2023/04/10 11:44:30;;;;;;;4.72;1.13;;;;;;;;;;4968290;28;20539;-64
2023/04/10 11:46:57;;;;;;;5.40;0.85;;;;;;;;;;4966317;28;20073;-65
2023/04/10 11:49:25;;;;;;;7.75;1.20;;;;;;;;;;4967195;28;20649;-65
2023/04/10 11:51:52;;;;;;;10.60;1.27;;;;;;;;;;4955334;28;20471;-64
2023/04/10 11:54:19;;;;;;;7.63;0.88;;;;;;;;;;4967675;28;20045;-63
2023/04/10 11:56:57;;;;;;;9.05;1.00;;;;;;;;;;4966280;28;20038;-63
2023/04/10 11:59:25;;;;;;;3.97;0.90;;;;;;;;;;4966039;28;20038;-62
2023/04/10 12:01:53;;;;;;;4.97;0.80;;;;;;;;;;4967807;28;20129;-66
2023/04/10 12:04:20;;;;;;;4.40;0.90;;;;;;;;;;4965181;28;21351;-68
2023/04/10 12:06:51;;;;;;;8.15;1.40;;;;;;;;;;4967194;28;20042;-63
2023/04/10 12:09:19;;;;;;;8.05;1.13;;;;;;;;;;4976252;28;20064;-62
2023/04/10 12:12:08;;;;;;;6.40;1.13;;;;;;;;;;4974741;28;20039;-63
2023/04/10 12:14:39;;;;;;;2.83;0.68;;;;;;;;;;4968368;28;20042;-65
2023/04/10 12:17:09;;;;;;;7.22;0.90;;;;;;;;;;4962525;28;20076;-66
2023/04/10 12:19:37;;;;;;;5.63;0.90;;;;;;;;;;4967876;28;20053;-66
2023/04/10 12:22:04;;;;;;;3.70;0.70;;;;;;;;;;4981443;28;20046;-63
2023/04/10 12:24:47;;;;;;;3.90;0.90;;;;;;;;;;4978293;28;20030;-64
2023/04/10 12:27:20;;;;;;;7.25;0.70;;;;;;;;;;4971906;28;20038;-63
2023/04/10 12:29:47;;;;;;;6.15;0.90;;;;;;;;;;4980608;28;20141;-65
2023/04/10 12:32:14;;;;;;;3.97;0.80;;;;;;;;;;4980546;28;20057;-64
2023/04/10 12:34:42;;;;;;;3.60;0.77;;;;;;;;;;4980132;28;20458;-65
2023/04/10 12:37:11;;;;;;;4.78;0.80;;;;;;;;;;4978479;28;20125;-63
2023/04/10 12:40:07;;;;;;;6.00;0.90;;;;;;;;;;5010023;28;20079;-64
2023/04/10 12:42:40;;;;;;;20.63;1.88;;;;;;;;;;4999259;28;20066;-66
2023/04/10 12:45:08;;;;;;;6.80;0.90;;;;;;;;;;4996256;28;20506;-64
2023/04/10 12:47:53;;;;;;;3.40;0.77;;;;;;;;;;4987942;28;20050;-65
2023/04/10 12:50:20;;;;;;;5.13;0.82;;;;;;;;;;5005407;28;20593;-64
2023/04/10 12:53:01;;;;;;;10.75;1.00;;;;;;;;;;5011881;28;20120;-63
2023/04/10 12:55:30;;;;;;;7.93;0.80;;;;;;;;;;5009218;28;20080;-64
2023/04/10 12:57:57;;;;;;;5.25;0.93;;;;;;;;;;5011657;28;20042;-64
2023/04/10 13:00:24;;;;;;;7.18;1.00;;;;;;;;;;5010475;28;20045;-65
2023/04/10 13:02:50;;;;;;;4.15;0.98;;;;;;;;;;5009295;28;20045;-63
2023/04/10 13:05:17;;;;;;;6.78;0.98;;;;;;;;;;4998658;28;20087;-64
2023/04/10 13:07:45;;;;;;;11.80;1.25;;;;;;;;;;5010619;28;20037;-64
2023/04/10 13:10:11;;;;;;;9.85;1.30;;;;;;;;;;5003029;28;20050;-65
2023/04/10 13:12:39;;;;;;;4.00;0.85;;;;;;;;;;4989727;28;20046;-65
2023/04/10 13:15:06;;;;;;;3.63;0.70;;;;;;;;;;4979621;28;20034;-64
2023/04/10 13:17:32;;;;;;;18.83;2.05;;;;;;;;;;4978228;28;20046;-64
2023/04/10 13:19:59;;;;;;;15.95;1.42;;;;;;;;;;4978776;28;20047;-64
2023/04/10 13:22:26;;;;;;;3.72;0.80;;;;;;;;;;4991612;28;20056;-63
2023/04/10 13:24:52;;;;;;;11.05;1.40;;;;;;;;;;4978112;28;20111;-63
2023/04/10 13:27:19;;;;;;;9.60;0.90;;;;;;;;;;4972795;28;20102;-65
2023/04/10 13:29:46;;;;;;;11.55;1.00;;;;;;;;;;4976639;28;20632;-64
2023/04/10 13:32:12;;;;;;;12.98;1.02;;;;;;;;;;4971976;28;20042;-63
2023/04/10 13:34:39;;;;;;;11.68;1.13;;;;;;;;;;4978625;28;20510;-66
2023/04/10 13:37:05;;;;;;;6.00;0.88;;;;;;;;;;4979384;28;20039;-65
2023/04/10 13:39:32;;;;;;;3.75;0.98;;;;;;;;;;4976984;28;20089;-64
2023/04/10 13:42:00;;;;;;;3.03;0.60;;;;;;;;;;4978111;28;20542;-64
2023/04/10 13:44:27;;;;;;;7.60;1.25;;;;;;;;;;4978376;28;20046;-65
2023/04/10 13:46:54;;;;;;;2.67;0.57;;;;;;;;;;4957877;28;20035;-65
2023/04/10 13:49:21;;;;;;;9.02;0.88;;;;;;;;;;4991766;28;20049;-63
2023/04/10 13:51:48;;;;;;;1.95;0.60;;;;;;;;;;4976044;28;20503;-66
2023/04/10 13:54:16;;;;;;;6.43;0.70;;;;;;;;;;4978706;28;20038;-65
2023/04/10 13:56:43;;;;;;;2.95;0.70;;;;;;;;;;4964343;28;20049;-63
2023/04/10 13:59:10;;;;;;;3.92;1.00;;;;;;;;;;4984342;28;20085;-64
2023/04/10 14:01:36;;;;;;;3.08;0.70;;;;;;;;;;4975542;28;20083;-64
2023/04/10 14:04:03;;;;;;;4.65;0.90;;;;;;;;;;4968835;28;20038;-66
2023/04/10 14:06:30;;;;;;;4.97;0.80;;;;;;;;;;4978124;28;20129;-65
2023/04/10 14:08:57;;;;;;;3.55;0.70;;;;;;;;;;4970626;28;20054;-65
2023/04/10 14:11:23;;;;;;;2.95;1.10;;;;;;;;;;4976044;28;20053;-64
2023/04/10 14:13:50;;;;;;;6.78;1.10;;;;;;;;;;4990472;28;20134;-64
2023/04/10 14:16:16;;;;;;;3.50;0.70;;;;;;;;;;4979064;28;20035;-63
2023/04/10 14:18:43;;;;;;;3.25;0.77;;;;;;;;;;4977340;28;20499;-63
2023/04/10 14:21:10;;;;;;;9.40;0.82;;;;;;;;;;4977560;28;20112;-64
2023/04/10 14:23:36;;;;;;;5.18;0.80;;;;;;;;;;4978267;28;20069;-64
2023/04/10 14:26:05;;;;;;;4.63;1.10;;;;;;;;;;4978259;28;21842;-63
2023/04/10 14:28:32;;;;;;;12.43;1.83;;;;;;;;;;4978254;28;20046;-64
2023/04/10 14:30:59;;;;;;;6.35;0.98;;;;;;;;;;4977489;28;20486;-63
2023/04/10 14:33:26;;;;;;;5.32;0.85;;;;;;;;;;4990244;28;20077;-65
2023/04/10 14:35:53;;;;;;;17.23;1.77;;;;;;;;;;4990212;28;20050;-64
2023/04/10 14:38:20;;;;;;;5.07;1.60;;;;;;;;;;4993639;28;20050;-66
2023/04/10 14:40:48;;;;;;;9.30;0.85;;;;;;;;;;4978064;28;20524;-64
2023/04/10 14:43:15;;;;;;;2.30;0.65;;;;;;;;;;4977789;28;20534;-64
2023/04/10 14:45:42;;;;;;;8.07;0.75;;;;;;;;;;4978033;28;20082;-64
2023/04/10 14:48:11;;;;;;;5.55;0.80;;;;;;;;;;4976500;28;20495;-63
2023/04/10 14:50:37;;;;;;;5.15;0.57;;;;;;;;;;4975129;28;20181;-63